Time;durP1;ratioP1;P1;durP2;ratioP2;P2;SDS_P1;SDS_P2;PMS_P1;PMS_P2;Temp;Humidity;BMP_temperature;BMP_pressure;BME280_temperature;BME280_humidity;BME280_pressure;Samples;Min_cycle;Max_cycle;Signal;HPM_P1;HPM_P2
2022/01/14 00:01:47;;;;;;;21.77;7.07;;;4.80;99.90;;;;;;5028759;28;20116;-63
2022/01/14 00:04:13;;;;;;;25.75;7.88;;;4.80;99.90;;;;;;5024830;28;20033;-62
2022/01/14 00:06:39;;;;;;;31.75;7.72;;;4.80;99.90;;;;;;5031183;28;20387;-61
2022/01/14 00:09:07;;;;;;;23.38;6.40;;;4.80;99.90;;;;;;5029505;28;20037;-62
2022/01/14 00:11:45;;;;;;;25.35;7.35;;;4.80;99.90;;;;;;5030849;28;20109;-63
2022/01/14 00:16:40;;;;;;;23.60;7.72;;;4.80;99.90;;;;;;5030992;28;20033;-62
2022/01/14 00:19:05;;;;;;;27.48;7.93;;;4.80;99.90;;;;;;5030866;28;20037;-62
2022/01/14 00:21:34;;;;;;;18.73;7.15;;;4.80;99.90;;;;;;5031164;28;20037;-62
2022/01/14 00:31:40;;;;;;;33.05;8.35;;;4.80;99.90;;;;;;5023394;28;20033;-63
2022/01/14 00:32:26;;;;;;;32.72;7.93;;;4.80;99.90;;;;;;5030826;28;20029;-62
2022/01/14 00:34:52;;;;;;;26.92;7.82;;;4.80;99.90;;;;;;5030545;28;20525;-62
2022/01/14 00:37:18;;;;;;;35.80;9.07;;;4.80;99.90;;;;;;5030994;28;20105;-62
2022/01/14 00:39:44;;;;;;;29.33;8.90;;;4.80;99.90;;;;;;5030659;28;20493;-62
2022/01/14 00:42:10;;;;;;;37.72;8.15;;;4.80;99.90;;;;;;5028650;28;20064;-62
2022/01/14 00:44:36;;;;;;;21.42;6.60;;;4.70;99.90;;;;;;5030886;28;20390;-66
2022/01/14 00:47:03;;;;;;;30.30;7.32;;;4.80;99.90;;;;;;5030979;28;20029;-61
2022/01/14 00:49:29;;;;;;;36.17;8.32;;;4.80;99.90;;;;;;5030426;28;20073;-63
2022/01/14 00:51:55;;;;;;;45.60;9.07;;;4.80;99.90;;;;;;5029853;28;20041;-61
2022/01/14 00:54:21;;;;;;;41.20;9.07;;;4.80;99.90;;;;;;5030668;28;20041;-61
2022/01/14 00:57:02;;;;;;;32.30;8.55;;;4.80;99.90;;;;;;5030123;28;20045;-61
2022/01/14 00:59:28;;;;;;;27.63;8.23;;;4.80;99.90;;;;;;5026865;28;20084;-61
2022/01/14 01:02:01;;;;;;;27.70;8.10;;;4.70;99.90;;;;;;5029692;28;20630;-61
2022/01/14 01:04:32;;;;;;;27.05;7.63;;;4.80;99.90;;;;;;5022489;28;20048;-61
2022/01/14 01:07:00;;;;;;;35.13;7.57;;;4.80;99.90;;;;;;5022801;28;20033;-61
2022/01/14 01:09:26;;;;;;;25.10;7.32;;;4.80;99.90;;;;;;5022494;28;20482;-61
2022/01/14 01:12:25;;;;;;;20.38;8.10;;;4.80;99.90;;;;;;5029671;28;20188;-61
2022/01/14 01:17:13;;;;;;;32.25;8.98;;;4.80;99.90;;;;;;5030321;28;20033;-61
2022/01/14 01:19:39;;;;;;;30.48;8.38;;;4.70;99.90;;;;;;5029712;28;20030;-62
2022/01/14 01:22:05;;;;;;;29.52;9.10;;;4.80;99.90;;;;;;5029602;28;20107;-62
2022/01/14 01:24:31;;;;;;;35.15;7.38;;;4.80;99.90;;;;;;5029973;28;20446;-61
2022/01/14 01:26:57;;;;;;;30.30;7.40;;;4.80;99.90;;;;;;5029919;28;20038;-62
2022/01/14 01:31:49;;;;;;;26.90;7.78;;;4.70;99.90;;;;;;5028753;28;20410;-62
2022/01/14 01:34:17;;;;;;;21.50;7.18;;;4.70;99.90;;;;;;5029984;28;20033;-61
2022/01/14 01:36:48;;;;;;;34.78;7.57;;;4.70;99.90;;;;;;5029642;28;20343;-61
2022/01/14 01:39:17;;;;;;;26.00;7.35;;;4.70;99.90;;;;;;5029925;28;20029;-61
2022/01/14 01:41:46;;;;;;;19.98;7.38;;;4.70;99.90;;;;;;5026899;28;20050;-61
2022/01/14 01:44:14;;;;;;;37.22;7.10;;;4.70;99.90;;;;;;5029985;28;20041;-61
2022/01/14 01:46:42;;;;;;;19.25;7.38;;;4.70;99.90;;;;;;5029172;28;20249;-62
2022/01/14 01:49:09;;;;;;;30.65;7.47;;;4.70;99.90;;;;;;5029860;28;20029;-61
2022/01/14 01:51:36;;;;;;;43.90;8.80;;;4.70;99.90;;;;;;5029064;28;20116;-62
2022/01/14 01:54:03;;;;;;;26.70;7.75;;;4.70;99.90;;;;;;5029728;28;20036;-61
2022/01/14 01:56:28;;;;;;;49.25;7.82;;;4.60;99.90;;;;;;5029387;28;20033;-61
2022/01/14 01:58:56;;;;;;;42.00;8.23;;;4.70;99.90;;;;;;5029295;28;20083;-62
2022/01/14 02:01:23;;;;;;;42.78;7.85;;;4.70;99.90;;;;;;5029079;28;20041;-61
2022/01/14 02:03:49;;;;;;;25.02;7.55;;;4.70;99.90;;;;;;5028698;28;20037;-61
2022/01/14 02:06:16;;;;;;;30.08;7.63;;;4.70;99.90;;;;;;5029522;28;20033;-61
2022/01/14 02:08:41;;;;;;;21.00;7.70;;;4.70;99.90;;;;;;5027820;28;20037;-61
2022/01/14 02:11:07;;;;;;;28.60;7.53;;;4.70;99.90;;;;;;5029032;28;20030;-62
2022/01/14 02:13:33;;;;;;;50.38;8.93;;;4.70;99.90;;;;;;5028926;28;20026;-63
2022/01/14 02:18:39;;;;;;;35.22;7.97;;;4.70;99.90;;;;;;5029285;28;20045;-61
2022/01/14 02:24:06;;;;;;;21.35;8.45;;;4.70;99.90;;;;;;5021034;28;20120;-62
2022/01/14 02:26:32;;;;;;;45.45;8.55;;;4.60;99.90;;;;;;5026660;28;20116;-61
2022/01/14 02:28:58;;;;;;;29.45;8.20;;;4.60;99.90;;;;;;5028949;28;20128;-62
2022/01/14 02:31:24;;;;;;;26.45;8.13;;;4.60;99.90;;;;;;5029541;28;20057;-62
2022/01/14 02:33:50;;;;;;;39.20;9.65;;;4.60;99.90;;;;;;5028896;28;20508;-62
2022/01/14 02:36:16;;;;;;;62.20;8.65;;;4.60;99.90;;;;;;5029300;28;20041;-60
2022/01/14 02:38:43;;;;;;;28.92;8.02;;;4.60;99.90;;;;;;5028619;28;20034;-61
2022/01/14 02:41:09;;;;;;;33.53;8.75;;;4.60;99.90;;;;;;5028727;28;20591;-62
2022/01/14 02:43:36;;;;;;;35.67;8.85;;;4.60;99.90;;;;;;5030461;28;20112;-62
2022/01/14 02:46:03;;;;;;;30.48;8.05;;;4.60;99.90;;;;;;5033113;28;20466;-62
2022/01/14 02:48:29;;;;;;;30.70;9.25;;;4.50;99.90;;;;;;5032919;28;20045;-61
2022/01/14 02:53:27;;;;;;;46.10;9.00;;;4.40;99.90;;;;;;5032886;28;20038;-61
2022/01/14 02:56:01;;;;;;;30.63;8.50;;;4.50;99.90;;;;;;5024710;28;20033;-61
2022/01/14 02:58:30;;;;;;;29.25;8.07;;;4.50;99.90;;;;;;5026920;28;20038;-61
2022/01/14 03:00:59;;;;;;;41.97;9.23;;;4.40;99.90;;;;;;5032098;28;20041;-61
2022/01/14 03:03:26;;;;;;;37.40;8.15;;;4.40;99.90;;;;;;5032532;28;20543;-61
2022/01/14 03:05:52;;;;;;;41.80;8.63;;;4.40;99.90;;;;;;5032165;28;25574;-61
2022/01/14 03:08:20;;;;;;;29.15;8.27;;;4.40;99.90;;;;;;5032488;28;20034;-61
2022/01/14 03:11:00;;;;;;;40.63;8.90;;;4.40;99.90;;;;;;5031697;28;20029;-61
2022/01/14 03:13:26;;;;;;;28.73;7.38;;;4.40;99.90;;;;;;5025996;28;20026;-61
2022/01/14 03:15:52;;;;;;;33.38;9.18;;;4.40;99.90;;;;;;5032199;28;20215;-61
2022/01/14 03:18:29;;;;;;;42.38;8.43;;;4.40;99.90;;;;;;5024231;28;20104;-62
2022/01/14 03:21:08;;;;;;;33.58;8.70;;;4.40;99.90;;;;;;5028454;28;20163;-62
2022/01/14 03:23:41;;;;;;;35.50;8.88;;;4.40;99.90;;;;;;5030233;28;20052;-62
2022/01/14 03:26:07;;;;;;;44.30;9.13;;;4.30;99.90;;;;;;5032446;28;20030;-61
2022/01/14 03:28:32;;;;;;;52.92;9.40;;;4.30;99.90;;;;;;5031564;28;20519;-66
2022/01/14 03:30:58;;;;;;;51.15;9.18;;;4.30;99.90;;;;;;5031585;28;20046;-61
2022/01/14 03:33:23;;;;;;;35.35;8.10;;;4.30;99.90;;;;;;5031974;28;20042;-61
2022/01/14 03:35:50;;;;;;;38.70;8.15;;;4.40;99.90;;;;;;5031752;28;20156;-60
2022/01/14 03:38:16;;;;;;;28.55;8.60;;;4.30;99.90;;;;;;5031849;28;20116;-64
2022/01/14 03:40:41;;;;;;;33.60;9.02;;;4.30;99.90;;;;;;5031177;28;20037;-60
2022/01/14 03:43:07;;;;;;;24.27;7.68;;;4.30;99.90;;;;;;5030977;28;20083;-62
2022/01/14 03:45:33;;;;;;;42.78;9.82;;;4.30;99.90;;;;;;5031409;28;20041;-67
2022/01/14 03:47:58;;;;;;;33.22;8.77;;;4.30;99.90;;;;;;5031653;28;20500;-61
2022/01/14 03:50:25;;;;;;;29.77;8.32;;;4.30;99.90;;;;;;5031641;28;20485;-61
2022/01/14 03:52:51;;;;;;;46.15;8.05;;;4.30;99.90;;;;;;5031243;28;20405;-61
2022/01/14 03:55:16;;;;;;;28.73;7.90;;;4.30;99.90;;;;;;5031179;28;20036;-62
2022/01/14 03:57:42;;;;;;;22.80;7.28;;;4.30;99.90;;;;;;5031524;28;20108;-61
2022/01/14 04:00:08;;;;;;;29.08;8.95;;;4.30;99.90;;;;;;5031212;28;20025;-61
2022/01/14 04:02:34;;;;;;;24.55;8.02;;;4.30;99.90;;;;;;5023456;28;20030;-63
2022/01/14 04:04:59;;;;;;;27.17;7.65;;;4.40;99.90;;;;;;5025162;28;20040;-62
2022/01/14 04:07:25;;;;;;;32.17;6.88;;;4.40;99.90;;;;;;5031715;28;20029;-61
2022/01/14 04:09:50;;;;;;;34.65;7.88;;;4.30;99.90;;;;;;5031056;28;20068;-61
2022/01/14 04:12:29;;;;;;;22.10;7.40;;;4.30;99.90;;;;;;5031487;28;20490;-61
2022/01/14 04:17:20;;;;;;;26.25;6.65;;;4.30;99.90;;;;;;5031742;28;20104;-63
2022/01/14 04:19:46;;;;;;;22.52;6.82;;;4.30;99.90;;;;;;5030914;28;20386;-60
2022/01/14 04:22:11;;;;;;;43.17;8.25;;;4.30;99.90;;;;;;5031202;28;20037;-61
2022/01/14 04:24:37;;;;;;;21.92;7.72;;;4.30;99.90;;;;;;5030831;28;20398;-60
2022/01/14 04:27:03;;;;;;;16.80;6.55;;;4.30;99.90;;;;;;5031318;28;20064;-61
2022/01/14 04:29:28;;;;;;;25.83;7.10;;;4.30;99.90;;;;;;5030977;28;20104;-61
2022/01/14 04:31:54;;;;;;;20.75;7.50;;;4.20;99.90;;;;;;5030607;28;20410;-61
2022/01/14 04:34:19;;;;;;;40.35;7.68;;;4.30;99.90;;;;;;5031065;28;20080;-61
2022/01/14 04:36:45;;;;;;;19.55;7.32;;;4.20;99.90;;;;;;5030655;28;20069;-60
2022/01/14 04:39:11;;;;;;;37.97;8.85;;;4.20;99.90;;;;;;5029464;28;20092;-61
2022/01/14 04:41:36;;;;;;;21.05;6.45;;;4.20;99.90;;;;;;5029605;28;20038;-61
2022/01/14 04:44:05;;;;;;;34.10;7.57;;;4.30;99.90;;;;;;5030783;28;20068;-61
2022/01/14 04:49:05;;;;;;;18.55;7.05;;;4.20;99.90;;;;;;5030467;28;20044;-61
2022/01/14 04:51:31;;;;;;;28.52;7.55;;;4.20;99.90;;;;;;5029133;28;20037;-61
2022/01/14 04:53:56;;;;;;;41.90;7.65;;;4.20;99.90;;;;;;5029962;28;20397;-62
2022/01/14 04:56:22;;;;;;;31.23;7.60;;;4.20;99.90;;;;;;5030353;28;20164;-62
2022/01/14 04:58:47;;;;;;;49.08;8.88;;;4.20;99.90;;;;;;5030424;28;20033;-62
2022/01/14 05:01:13;;;;;;;19.05;6.50;;;4.20;99.90;;;;;;5030261;28;20091;-61
2022/01/14 05:03:39;;;;;;;52.35;8.07;;;4.20;99.90;;;;;;5028634;28;20040;-62
2022/01/14 05:06:06;;;;;;;33.80;7.00;;;4.10;99.90;;;;;;5030432;28;20044;-62
2022/01/14 05:08:39;;;;;;;31.30;6.88;;;4.10;99.90;;;;;;5030275;28;20474;-61
2022/01/14 05:13:43;;;;;;;51.08;7.90;;;4.10;99.90;;;;;;5022556;28;20087;-62
2022/01/14 05:16:09;;;;;;;23.90;6.18;;;4.10;99.90;;;;;;5030721;28;20033;-61
2022/01/14 05:18:37;;;;;;;32.10;7.20;;;4.10;99.90;;;;;;5030107;28;20032;-62
2022/01/14 05:21:06;;;;;;;30.30;6.35;;;4.10;99.90;;;;;;5029476;28;20095;-62
2022/01/14 05:23:32;;;;;;;36.53;6.97;;;4.10;99.90;;;;;;5030193;28;20132;-62
2022/01/14 05:25:58;;;;;;;25.90;6.28;;;4.10;99.90;;;;;;5029587;28;20549;-61
2022/01/14 05:28:23;;;;;;;41.33;6.80;;;4.10;99.90;;;;;;5030193;28;20125;-61
2022/01/14 05:30:49;;;;;;;33.70;6.35;;;4.10;99.90;;;;;;5029431;28;20048;-61
2022/01/14 05:33:16;;;;;;;37.28;7.20;;;4.10;99.90;;;;;;5030187;28;20036;-61
2022/01/14 05:35:42;;;;;;;22.35;5.97;;;4.10;99.90;;;;;;5029185;28;20060;-62
2022/01/14 05:38:07;;;;;;;45.38;6.43;;;4.10;99.90;;;;;;5028556;28;20462;-62
2022/01/14 05:40:33;;;;;;;25.75;6.47;;;4.10;99.90;;;;;;5029464;28;20029;-62
2022/01/14 05:42:59;;;;;;;41.38;6.50;;;4.10;99.90;;;;;;5026067;28;20029;-62
2022/01/14 05:45:26;;;;;;;30.83;5.75;;;4.10;99.90;;;;;;5030714;28;20539;-62
2022/01/14 05:47:51;;;;;;;30.55;5.85;;;4.10;99.90;;;;;;5029012;28;20041;-61
2022/01/14 05:50:22;;;;;;;31.23;5.80;;;4.10;99.90;;;;;;5029240;28;20033;-62
2022/01/14 05:52:48;;;;;;;20.92;6.15;;;4.10;99.90;;;;;;5028986;28;20125;-61
2022/01/14 05:55:16;;;;;;;32.80;6.40;;;4.10;99.90;;;;;;5029606;28;20032;-61
2022/01/14 05:57:43;;;;;;;34.05;6.28;;;4.10;99.90;;;;;;5029351;28;20036;-61
2022/01/14 06:00:13;;;;;;;41.05;7.07;;;4.10;99.90;;;;;;5029309;28;20030;-61
2022/01/14 06:02:39;;;;;;;;;;;4.10;99.90;;;;;;5016069;28;20092;-63
2022/01/14 06:05:05;;;;;;;30.13;6.68;;;4.10;99.90;;;;;;5024587;28;19917;-61
2022/01/14 06:07:30;;;;;;;15.93;5.70;;;4.10;99.90;;;;;;5028555;28;20033;-62
2022/01/14 06:09:56;;;;;;;21.92;5.40;;;4.20;99.90;;;;;;5028627;28;20033;-62
2022/01/14 06:12:21;;;;;;;30.55;5.55;;;4.10;99.90;;;;;;5029058;28;20041;-61
2022/01/14 06:14:47;;;;;;;30.58;6.15;;;4.10;99.90;;;;;;5029061;28;20065;-61
2022/01/14 06:17:13;;;;;;;19.58;5.75;;;4.10;99.90;;;;;;5032488;28;20041;-62
2022/01/14 06:19:38;;;;;;;22.85;5.90;;;4.00;99.90;;;;;;5035691;28;20108;-62
2022/01/14 06:22:04;;;;;;;26.55;5.75;;;4.00;99.90;;;;;;5035578;28;20215;-61
2022/01/14 06:24:29;;;;;;;24.70;6.10;;;4.00;99.90;;;;;;5031411;28;20069;-62
2022/01/14 06:26:55;;;;;;;35.35;6.00;;;4.00;99.90;;;;;;5035476;28;20045;-62
2022/01/14 06:29:22;;;;;;;23.35;5.07;;;4.00;99.90;;;;;;5035719;28;20163;-63
2022/01/14 06:31:48;;;;;;;33.00;5.72;;;4.00;99.90;;;;;;5035270;28;20103;-61
2022/01/14 06:34:14;;;;;;;29.23;6.82;;;4.00;99.90;;;;;;5035742;28;20026;-63
2022/01/14 06:36:43;;;;;;;43.20;7.35;;;4.00;99.90;;;;;;5033887;28;20378;-63
2022/01/14 06:39:09;;;;;;;12.40;4.95;;;4.00;99.90;;;;;;5028567;28;20129;-62
2022/01/14 06:41:35;;;;;;;18.63;5.32;;;4.00;99.90;;;;;;5032384;28;20124;-63
2022/01/14 06:44:00;;;;;;;14.90;5.13;;;4.00;99.90;;;;;;5034923;28;20418;-61
2022/01/14 06:46:26;;;;;;;22.35;5.72;;;4.00;99.90;;;;;;5035833;28;20041;-61
2022/01/14 06:48:51;;;;;;;22.30;5.90;;;4.00;99.90;;;;;;5035261;28;20099;-61
2022/01/14 06:51:17;;;;;;;25.60;5.03;;;4.00;99.90;;;;;;5035293;28;20045;-61
2022/01/14 06:53:43;;;;;;;17.85;5.30;;;4.00;99.90;;;;;;5035378;28;20099;-61
2022/01/14 06:56:11;;;;;;;27.50;5.57;;;4.00;99.90;;;;;;5035629;28;20505;-61
2022/01/14 06:58:37;;;;;;;21.15;6.68;;;4.00;99.90;;;;;;5031411;28;20061;-61
2022/01/14 07:01:04;;;;;;;16.27;5.68;;;4.00;99.90;;;;;;5035470;28;20041;-61
2022/01/14 07:03:29;;;;;;;28.40;5.63;;;4.00;99.90;;;;;;5035690;28;20034;-61
2022/01/14 07:05:55;;;;;;;21.92;5.78;;;4.00;99.90;;;;;;5034593;28;20103;-61
2022/01/14 07:08:20;;;;;;;31.10;6.55;;;4.00;99.90;;;;;;5035411;28;20440;-62
2022/01/14 07:10:46;;;;;;;31.48;6.47;;;4.00;99.90;;;;;;5034765;28;20043;-61
2022/01/14 07:13:11;;;;;;;28.10;5.65;;;4.00;99.90;;;;;;5034944;28;20083;-62
2022/01/14 07:15:37;;;;;;;20.90;6.75;;;4.10;99.90;;;;;;5035063;28;20041;-61
2022/01/14 07:18:03;;;;;;;20.67;5.15;;;4.10;99.90;;;;;;5022699;28;20033;-62
2022/01/14 07:20:28;;;;;;;15.95;5.07;;;4.10;99.90;;;;;;5015907;28;20442;-62
2022/01/14 07:22:54;;;;;;;13.20;5.30;;;4.10;99.90;;;;;;5018908;28;20137;-62
2022/01/14 07:25:20;;;;;;;19.48;4.82;;;4.10;99.90;;;;;;5022575;28;20128;-61
2022/01/14 07:27:47;;;;;;;26.98;6.03;;;4.10;99.90;;;;;;5020919;28;20568;-61
2022/01/14 07:30:14;;;;;;;29.90;5.32;;;4.10;99.90;;;;;;5015235;28;20474;-61
2022/01/14 07:32:40;;;;;;;16.85;5.50;;;4.10;99.90;;;;;;5030135;28;20039;-62
2022/01/14 07:35:07;;;;;;;18.90;5.22;;;4.10;99.90;;;;;;5030775;28;20117;-60
2022/01/14 07:37:32;;;;;;;25.02;5.68;;;4.10;99.90;;;;;;5021912;28;20154;-61
2022/01/14 07:39:58;;;;;;;20.60;6.68;;;4.00;99.90;;;;;;5011516;28;20482;-62
2022/01/14 07:42:24;;;;;;;15.68;5.40;;;4.00;99.90;;;;;;5017210;28;20048;-62
2022/01/14 07:44:50;;;;;;;13.95;5.40;;;4.00;99.90;;;;;;5013797;28;20038;-61
2022/01/14 07:47:15;;;;;;;15.30;5.07;;;4.10;99.90;;;;;;5013754;28;20544;-60
2022/01/14 07:49:41;;;;;;;14.38;5.47;;;4.10;99.90;;;;;;5012693;28;20121;-62
2022/01/14 07:52:06;;;;;;;17.98;5.75;;;4.10;99.90;;;;;;5014396;28;20029;-61
2022/01/14 07:54:32;;;;;;;16.23;5.15;;;4.10;99.90;;;;;;5013630;28;20096;-61
2022/01/14 07:57:00;;;;;;;11.80;4.80;;;4.00;99.90;;;;;;5011269;28;20034;-61
2022/01/14 07:59:28;;;;;;;11.32;5.03;;;4.10;99.90;;;;;;5019079;28;20482;-61
2022/01/14 08:01:55;;;;;;;11.23;4.82;;;4.10;99.90;;;;;;5030858;28;20186;-62
2022/01/14 08:04:21;;;;;;;14.73;5.68;;;4.10;99.90;;;;;;5031040;28;20030;-61
2022/01/14 08:06:50;;;;;;;16.70;5.40;;;4.10;99.90;;;;;;5031177;28;20091;-61
2022/01/14 08:09:16;;;;;;;13.45;4.95;;;4.10;99.90;;;;;;5031744;28;20034;-60
2022/01/14 08:11:43;;;;;;;16.30;4.68;;;4.10;99.90;;;;;;5030808;28;20493;-62
2022/01/14 08:14:09;;;;;;;12.88;5.22;;;4.10;99.90;;;;;;5031395;28;20030;-62
2022/01/14 08:16:34;;;;;;;12.82;5.13;;;4.10;99.90;;;;;;5025426;28;20056;-65
2022/01/14 08:19:00;;;;;;;13.23;4.95;;;4.20;99.90;;;;;;5029038;28;20041;-61
2022/01/14 08:21:26;;;;;;;10.55;4.90;;;4.20;99.90;;;;;;5030182;28;20079;-62
2022/01/14 08:23:51;;;;;;;11.68;4.68;;;4.10;99.90;;;;;;5029609;28;20481;-61
2022/01/14 08:26:17;;;;;;;16.52;5.63;;;4.20;99.90;;;;;;5030359;28;20040;-62
2022/01/14 08:28:43;;;;;;;13.02;5.15;;;4.20;99.90;;;;;;5028839;28;20068;-61
2022/01/14 08:31:08;;;;;;;12.02;5.13;;;4.20;99.90;;;;;;5029818;28;20087;-62
2022/01/14 08:33:34;;;;;;;10.05;4.53;;;4.20;99.90;;;;;;5029889;28;20060;-62
2022/01/14 08:36:00;;;;;;;12.77;4.50;;;4.20;99.90;;;;;;5017747;28;20489;-62
2022/01/14 08:38:25;;;;;;;13.43;5.35;;;4.20;99.90;;;;;;5029977;28;20037;-61
2022/01/14 08:40:51;;;;;;;10.23;4.55;;;4.20;99.90;;;;;;5029193;28;20037;-61
2022/01/14 08:43:17;;;;;;;8.65;4.50;;;4.20;99.90;;;;;;5027175;28;20494;-62
2022/01/14 08:45:42;;;;;;;10.82;5.28;;;4.20;99.90;;;;;;5029500;28;20060;-62
2022/01/14 08:48:08;;;;;;;8.93;4.85;;;4.20;99.90;;;;;;5029579;28;20033;-61
2022/01/14 08:50:39;;;;;;;10.82;4.38;;;4.20;99.90;;;;;;5029722;28;20537;-61
2022/01/14 08:53:10;;;;;;;8.98;4.78;;;4.30;99.90;;;;;;5045196;28;20362;-61
2022/01/14 08:55:36;;;;;;;10.57;4.93;;;4.30;99.90;;;;;;5024181;28;20049;-62
2022/01/14 08:58:03;;;;;;;9.73;5.40;;;4.30;99.90;;;;;;5029900;28;20033;-61
2022/01/14 09:00:30;;;;;;;11.18;5.28;;;4.30;99.90;;;;;;5021769;28;20033;-62
2022/01/14 09:02:56;;;;;;;9.23;4.72;;;4.30;99.90;;;;;;5029027;28;20199;-61
2022/01/14 09:05:23;;;;;;;9.23;4.68;;;4.30;99.90;;;;;;5025427;28;20034;-63
2022/01/14 09:07:50;;;;;;;13.27;5.30;;;4.40;99.90;;;;;;5011175;28;20034;-61
2022/01/14 09:10:16;;;;;;;8.50;4.20;;;4.40;99.90;;;;;;5018796;28;20039;-62
2022/01/14 09:12:42;;;;;;;8.98;4.50;;;4.40;99.90;;;;;;5028224;28;20037;-61
2022/01/14 09:15:09;;;;;;;12.98;5.25;;;4.40;99.90;;;;;;5019172;28;20025;-62
2022/01/14 09:17:35;;;;;;;9.65;4.93;;;4.50;99.90;;;;;;5008326;28;20037;-64
2022/01/14 09:20:03;;;;;;;10.05;5.00;;;4.50;99.90;;;;;;5014554;28;20046;-61
2022/01/14 09:22:30;;;;;;;13.13;6.10;;;4.50;99.90;;;;;;5022204;28;20041;-61
2022/01/14 09:24:59;;;;;;;11.23;5.07;;;4.60;99.90;;;;;;5028551;28;20448;-63
2022/01/14 09:27:25;;;;;;;13.60;5.30;;;4.60;99.90;;;;;;5029049;28;20444;-62
2022/01/14 09:29:50;;;;;;;11.20;5.43;;;4.60;99.90;;;;;;5020842;28;20042;-62
2022/01/14 09:32:16;;;;;;;15.30;5.38;;;4.60;99.90;;;;;;5015337;28;20037;-62
2022/01/14 09:34:42;;;;;;;11.23;5.35;;;4.70;99.90;;;;;;5025514;28;20044;-61
2022/01/14 09:37:07;;;;;;;12.13;5.15;;;4.60;99.90;;;;;;5024141;28;20512;-62
2022/01/14 09:39:34;;;;;;;13.75;5.28;;;4.70;99.90;;;;;;5018926;28;20042;-62
2022/01/14 09:42:00;;;;;;;10.27;5.18;;;4.70;99.90;;;;;;5020656;28;20041;-62
2022/01/14 09:44:26;;;;;;;14.23;6.07;;;4.80;99.90;;;;;;5020769;28;20397;-62
2022/01/14 09:46:52;;;;;;;11.15;4.47;;;4.80;99.90;;;;;;5028999;28;20033;-64
2022/01/14 09:49:19;;;;;;;10.18;5.47;;;4.90;99.90;;;;;;5013228;28;20117;-62
2022/01/14 09:51:46;;;;;;;13.32;5.53;;;4.90;99.90;;;;;;5027559;28;20124;-62
2022/01/14 09:54:11;;;;;;;11.85;5.20;;;4.80;99.90;;;;;;5030677;28;20144;-61
2022/01/14 09:56:38;;;;;;;10.25;4.85;;;4.90;99.90;;;;;;5029989;28;20030;-62
2022/01/14 09:59:05;;;;;;;16.55;5.68;;;5.00;99.90;;;;;;5029411;28;20037;-61
2022/01/14 10:01:39;;;;;;;15.20;5.93;;;5.00;99.90;;;;;;5026002;28;20032;-61
2022/01/14 10:04:04;;;;;;;15.57;6.07;;;5.10;99.90;;;;;;5029012;28;20105;-61
2022/01/14 10:06:57;;;;;;;13.73;6.32;;;5.00;99.90;;;;;;5028303;28;20128;-62
2022/01/14 10:09:44;;;;;;;9.93;4.85;;;5.10;99.90;;;;;;5014337;28;20052;-60
2022/01/14 10:12:16;;;;;;;13.73;6.28;;;5.10;99.90;;;;;;5024980;28;20048;-61
2022/01/14 10:14:54;;;;;;;15.02;5.47;;;5.10;99.90;;;;;;5028973;28;20050;-61
2022/01/14 10:17:20;;;;;;;15.02;6.22;;;5.20;99.90;;;;;;5029628;28;20038;-62
2022/01/14 10:19:47;;;;;;;12.70;5.72;;;5.20;99.90;;;;;;5021204;28;20037;-61
2022/01/14 10:22:24;;;;;;;14.63;5.53;;;5.30;99.90;;;;;;5023526;28;20036;-62
2022/01/14 10:25:13;;;;;;;10.52;5.30;;;5.30;99.90;;;;;;5020897;28;20035;-62
2022/01/14 10:27:45;;;;;;;11.00;5.05;;;5.40;99.90;;;;;;5013230;28;20034;-63
2022/01/14 10:30:16;;;;;;;13.98;5.30;;;5.50;99.90;;;;;;5011789;28;20038;-63
2022/01/14 10:32:46;;;;;;;13.88;5.70;;;5.50;99.90;;;;;;5011591;28;20117;-64
2022/01/14 10:35:17;;;;;;;12.18;5.70;;;5.50;99.90;;;;;;5029076;28;20039;-62
2022/01/14 10:37:43;;;;;;;11.65;5.47;;;5.60;99.90;;;;;;5028288;28;20029;-62
2022/01/14 10:40:13;;;;;;;11.10;4.88;;;5.60;99.90;;;;;;5010474;28;20041;-62
2022/01/14 10:42:40;;;;;;;18.13;7.20;;;5.60;99.90;;;;;;5010606;28;20407;-61
2022/01/14 10:45:27;;;;;;;11.13;5.80;;;5.60;99.90;;;;;;5011834;28;20038;-62
2022/01/14 10:48:07;;;;;;;14.57;5.22;;;5.60;99.90;;;;;;5007591;28;20029;-63
2022/01/14 10:50:53;;;;;;;19.45;5.88;;;5.60;99.90;;;;;;5013959;28;20034;-61
2022/01/14 10:53:24;;;;;;;14.35;5.93;;;5.70;99.90;;;;;;5013758;28;20034;-62
2022/01/14 10:55:52;;;;;;;10.73;5.35;;;5.70;99.90;;;;;;5015115;28;20033;-61
2022/01/14 10:58:24;;;;;;;20.88;5.82;;;5.70;99.90;;;;;;5015393;28;20490;-62
2022/01/14 11:00:59;;;;;;;15.57;6.07;;;5.80;99.90;;;;;;5011747;28;20537;-62
2022/01/14 11:03:46;;;;;;;13.93;5.97;;;5.90;99.90;;;;;;5017062;28;20068;-62
2022/01/14 11:06:24;;;;;;;11.60;5.85;;;5.90;99.90;;;;;;5022159;28;20371;-61
2022/01/14 11:09:00;;;;;;;12.52;5.78;;;5.90;99.90;;;;;;5022348;28;20112;-62
2022/01/14 11:11:28;;;;;;;16.75;6.57;;;5.90;99.90;;;;;;5018395;28;20535;-62
2022/01/14 11:13:54;;;;;;;17.45;6.03;;;5.90;99.90;;;;;;5020412;28;20030;-62
2022/01/14 11:16:20;;;;;;;15.20;5.95;;;6.00;99.90;;;;;;5025483;28;20026;-63
2022/01/14 11:18:46;;;;;;;12.52;5.93;;;6.00;99.90;;;;;;5024914;28;20486;-61
2022/01/14 11:23:57;;;;;;;13.25;5.95;;;6.10;99.90;;;;;;5015367;28;20434;-62
2022/01/14 11:26:29;;;;;;;12.18;5.93;;;6.10;99.90;;;;;;5014291;28;20148;-62
2022/01/14 11:29:01;;;;;;;15.25;6.55;;;6.10;99.90;;;;;;5014322;28;20022;-62
2022/01/14 11:31:38;;;;;;;14.20;5.47;;;6.10;99.90;;;;;;5013898;28;20034;-62
2022/01/14 11:34:07;;;;;;;13.25;6.03;;;6.10;99.90;;;;;;5024935;28;20041;-62
2022/01/14 11:36:48;;;;;;;15.05;6.68;;;6.20;99.90;;;;;;5016359;28;20490;-62
2022/01/14 11:39:17;;;;;;;;;;;6.20;99.90;;;;;;5019394;28;20047;-62
2022/01/14 11:41:53;;;;;;;14.27;6.75;;;6.20;99.90;;;;;;5028619;28;20320;-61
2022/01/14 11:45:00;;;;;;;13.18;6.03;;;6.30;99.90;;;;;;5028245;28;20033;-61
2022/01/14 11:47:27;;;;;;;14.27;5.95;;;6.30;99.90;;;;;;4959692;28;20031;-62
2022/01/14 11:49:55;;;;;;;12.57;6.30;;;6.30;99.90;;;;;;4968623;28;20039;-62
2022/01/14 11:52:42;;;;;;;19.80;6.10;;;6.40;99.90;;;;;;4993982;28;20037;-64
2022/01/14 11:55:23;;;;;;;15.43;6.07;;;6.40;99.90;;;;;;5027524;28;20083;-62
2022/01/14 11:57:54;;;;;;;14.00;6.45;;;6.40;99.90;;;;;;5022781;28;20038;-61
2022/01/14 12:00:26;;;;;;;17.17;6.47;;;6.50;99.90;;;;;;5023158;28;20685;-62
2022/01/14 12:02:58;;;;;;;16.33;6.30;;;6.50;99.90;;;;;;5023621;28;20041;-61
2022/01/14 12:05:29;;;;;;;14.10;5.88;;;6.50;99.90;;;;;;5012114;28;20034;-61
2022/01/14 12:08:04;;;;;;;14.80;5.82;;;6.60;99.90;;;;;;5024039;28;20106;-61
2022/01/14 12:10:41;;;;;;;13.50;5.95;;;6.60;99.90;;;;;;5014469;28;20034;-63
2022/01/14 12:13:24;;;;;;;15.63;6.15;;;6.60;99.90;;;;;;5009798;28;20033;-62
2022/01/14 12:16:03;;;;;;;15.30;5.85;;;6.60;99.90;;;;;;5010872;28;20449;-62
2022/01/14 12:19:02;;;;;;;15.40;5.20;;;6.70;99.90;;;;;;5019185;28;20116;-62
2022/01/14 12:21:50;;;;;;;16.60;6.38;;;6.70;99.90;;;;;;5025258;28;20045;-62
2022/01/14 12:24:18;;;;;;;15.60;5.93;;;6.70;99.90;;;;;;5026085;28;20036;-62
2022/01/14 12:27:10;;;;;;;13.95;6.40;;;6.70;99.90;;;;;;5031058;28;20128;-62
2022/01/14 12:29:46;;;;;;;17.88;6.65;;;6.70;99.90;;;;;;5028198;28;20163;-66
2022/01/14 12:32:15;;;;;;;16.77;6.47;;;6.70;99.90;;;;;;5030897;28;20113;-62
2022/01/14 12:35:00;;;;;;;14.48;5.65;;;6.70;99.90;;;;;;5031159;28;20058;-62
2022/01/14 12:37:26;;;;;;;13.98;6.97;;;6.70;99.90;;;;;;5024957;28;20052;-62
2022/01/14 12:39:53;;;;;;;22.98;6.95;;;6.80;99.90;;;;;;5028975;28;20460;-62
2022/01/14 12:42:20;;;;;;;15.02;6.07;;;6.70;99.90;;;;;;5030535;28;20088;-62
2022/01/14 12:44:50;;;;;;;16.40;6.53;;;6.70;99.90;;;;;;5038205;28;20038;-62
2022/01/14 12:47:22;;;;;;;13.93;6.68;;;6.80;99.90;;;;;;5027360;28;20056;-62
2022/01/14 12:49:49;;;;;;;12.93;6.78;;;6.70;99.90;;;;;;5016582;28;20390;-62
2022/01/14 12:52:29;;;;;;;16.63;6.95;;;6.70;99.90;;;;;;5016526;28;20489;-62
2022/01/14 12:54:55;;;;;;;;;;;6.70;99.90;;;;;;5024997;28;20525;-62
2022/01/14 12:57:24;;;;;;;15.90;6.22;;;6.70;99.90;;;;;;5029718;28;19917;-62
2022/01/14 12:59:51;;;;;;;16.95;6.03;;;6.70;99.90;;;;;;5029416;28;20037;-62
2022/01/14 13:02:25;;;;;;;16.77;7.00;;;6.80;99.90;;;;;;5009077;28;20038;-62
2022/01/14 13:05:03;;;;;;;14.15;6.68;;;6.80;99.90;;;;;;5012347;28;20045;-62
2022/01/14 13:07:30;;;;;;;18.63;7.38;;;6.90;99.90;;;;;;5015129;28;20042;-62
2022/01/14 13:09:56;;;;;;;19.20;7.35;;;6.90;99.90;;;;;;5018068;28;20092;-60
2022/01/14 13:12:26;;;;;;;17.40;6.63;;;6.90;99.90;;;;;;5018424;28;20044;-61
2022/01/14 13:15:00;;;;;;;19.20;8.40;;;6.90;99.90;;;;;;5015814;28;20037;-61
2022/01/14 13:17:30;;;;;;;15.82;6.18;;;7.00;99.90;;;;;;5017273;28;20463;-62
2022/01/14 13:20:08;;;;;;;16.83;7.32;;;6.90;99.90;;;;;;5020475;28;20034;-61
2022/01/14 13:22:35;;;;;;;23.42;7.40;;;6.90;99.90;;;;;;5011236;28;20084;-61
2022/01/14 13:25:06;;;;;;;15.98;6.90;;;6.90;99.90;;;;;;5013352;28;20629;-61
2022/01/14 13:27:36;;;;;;;;;;;6.90;99.90;;;;;;5018350;28;20121;-62